Time;durP1;ratioP1;P1;durP2;ratioP2;P2;SDS_P1;SDS_P2;PMS_P1;PMS_P2;Temp;Humidity;BMP_temperature;BMP_pressure;BME280_temperature;BME280_humidity;BME280_pressure;Samples;Min_cycle;Max_cycle;Signal;HPM_P1;HPM_P2
2024/03/16 00:01:19;;;;;;;;;35.20;30.40;;;;;12.30;100.00;98508.59;6133430;28;96369;-54
2024/03/16 00:04:22;;;;;;;;;40.40;32.40;;;;;12.37;100.00;98522.78;6117267;28;96447;-54
2024/03/16 00:07:26;;;;;;;;;39.40;31.60;;;;;12.36;100.00;98520.34;6137915;28;96522;-54
2024/03/16 00:10:29;;;;;;;;;40.75;35.00;;;;;12.32;100.00;98521.84;6125063;28;98462;-55
2024/03/16 00:13:32;;;;;;;;;42.75;33.25;;;;;11.93;100.00;98456.81;6133441;28;97702;-54
2024/03/16 00:16:35;;;;;;;;;33.00;30.00;;;;;12.30;100.00;98521.31;6149691;28;96323;-54
2024/03/16 00:19:38;;;;;;;;;33.75;30.25;;;;;12.29;100.00;98519.66;6158454;28;97249;-54
2024/03/16 00:22:41;;;;;;;;;41.20;33.20;;;;;12.30;100.00;98521.31;6122441;28;97462;-54
2024/03/16 00:25:45;;;;;;;;;27.40;25.00;;;;;12.35;100.00;98519.50;6132960;28;96262;-55
2024/03/16 00:28:50;;;;;;;;;30.25;28.00;;;;;12.43;100.00;98518.28;6123293;28;96536;-54
2024/03/16 00:31:54;;;;;;;;;24.50;23.00;;;;;12.51;100.00;98513.31;6149002;28;96819;-55
2024/03/16 00:34:57;;;;;;;;;28.50;26.50;;;;;12.63;100.00;98515.97;6154511;28;96480;-54
2024/03/16 00:38:00;;;;;;;;;28.00;26.00;;;;;12.74;100.00;98516.97;6107666;28;96669;-54
2024/03/16 00:41:04;;;;;;;;;28.20;25.60;;;;;12.80;100.00;98516.00;6112904;28;96987;-54
2024/03/16 00:44:08;;;;;;;;;29.50;26.50;;;;;12.83;100.00;98512.78;6135741;28;96350;-54
2024/03/16 00:47:11;;;;;;;;;26.60;23.40;;;;;12.89;100.00;98498.28;6127810;28;96352;-55
2024/03/16 00:50:14;;;;;;;;;26.60;24.60;;;;;12.97;100.00;98508.69;6138826;28;96849;-54
2024/03/16 00:53:18;;;;;;;;;22.60;22.00;;;;;13.05;100.00;98500.13;6150796;28;96407;-54
2024/03/16 00:56:22;;;;;;;;;23.50;22.00;;;;;13.09;100.00;98498.59;6124018;28;96217;-54
2024/03/16 00:59:25;;;;;;;;;26.40;23.40;;;;;13.13;100.00;98493.53;6109315;28;98135;-54
2024/03/16 01:02:29;;;;;;;;;22.60;21.60;;;;;13.18;100.00;98490.91;6129230;28;96410;-55
2024/03/16 01:05:32;;;;;;;;;24.25;20.25;;;;;13.19;100.00;98485.25;6115181;28;96596;-54
2024/03/16 01:08:35;;;;;;;;;22.00;19.20;;;;;13.20;100.00;98484.16;6115754;28;96279;-54
2024/03/16 01:11:38;;;;;;;;;23.75;22.25;;;;;13.24;100.00;98476.41;6130278;28;96299;-55
2024/03/16 01:14:41;;;;;;;;;20.40;19.40;;;;;13.25;100.00;98473.41;6114577;28;96685;-54
2024/03/16 01:17:45;;;;;;;;;22.40;20.00;;;;;13.29;100.00;98469.13;6131392;28;97323;-54
2024/03/16 01:20:48;;;;;;;;;19.00;18.00;;;;;13.32;100.00;98473.25;6114956;28;98771;-54
2024/03/16 01:23:51;;;;;;;;;19.00;17.00;;;;;13.26;100.00;98466.13;6115721;28;96318;-54
2024/03/16 01:26:54;;;;;;;;;19.20;17.20;;;;;13.33;100.00;98466.78;6115455;28;99199;-54
2024/03/16 01:29:57;;;;;;;;;21.20;18.00;;;;;13.33;100.00;98469.47;6131868;28;96326;-54
2024/03/16 01:33:00;;;;;;;;;21.00;19.60;;;;;13.32;100.00;98459.72;6115375;28;96338;-54
2024/03/16 01:36:04;;;;;;;;;19.00;18.00;;;;;13.32;100.00;98460.53;6131416;28;96580;-54
2024/03/16 01:39:11;;;;;;;;;17.60;17.00;;;;;13.34;100.00;98460.28;6131156;28;96379;-54
2024/03/16 01:42:14;;;;;;;;;22.20;19.60;;;;;13.33;100.00;98454.06;6115598;28;98584;-55
2024/03/16 01:45:17;;;;;;;;;16.60;15.60;;;;;13.36;100.00;98456.25;6131679;28;96273;-54
2024/03/16 01:48:20;;;;;;;;;20.25;18.00;;;;;13.19;100.00;98428.41;6114307;28;99216;-54
2024/03/16 01:51:23;;;;;;;;;18.00;16.75;;;;;12.89;100.00;98381.94;6131142;28;96411;-54
2024/03/16 01:54:26;;;;;;;;;20.00;17.20;;;;;13.41;100.00;98456.31;6145517;28;97146;-54
2024/03/16 01:57:29;;;;;;;;;19.00;17.00;;;;;13.37;100.00;98451.66;6140307;28;96405;-54
2024/03/16 02:00:33;;;;;;;;;21.00;19.00;;;;;13.41;100.00;98458.22;6122689;28;96786;-57
2024/03/16 02:03:36;;;;;;;;;17.00;16.00;;;;;13.41;100.00;98461.75;6131761;22;96803;-56
2024/03/16 02:06:39;;;;;;;;;20.00;18.00;;;;;13.40;100.00;98454.69;6179394;28;96451;-56
2024/03/16 02:09:42;;;;;;;;;15.20;14.80;;;;;13.44;100.00;98463.13;6178905;28;96342;-55
2024/03/16 02:12:45;;;;;;;;;20.20;17.00;;;;;13.40;100.00;98468.22;6179868;28;96552;-56
2024/03/16 02:15:48;;;;;;;;;21.25;16.25;;;;;13.30;100.00;98465.38;6179078;28;96337;-56
2024/03/16 02:18:52;;;;;;;;;18.40;16.00;;;;;13.37;100.00;98470.63;6177823;28;96317;-55
2024/03/16 02:21:55;;;;;;;;;19.50;18.00;;;;;13.24;100.00;98452.03;6154971;28;96373;-56
2024/03/16 02:24:58;;;;;;;;;19.00;16.00;;;;;13.16;100.00;98458.66;6154981;28;98655;-56
2024/03/16 02:28:01;;;;;;;;;19.80;18.40;;;;;13.13;100.00;98469.19;6155187;28;96391;-56
2024/03/16 02:31:04;;;;;;;;;23.00;22.00;;;;;12.92;100.00;98465.31;6154727;28;97400;-56
2024/03/16 02:34:08;;;;;;;;;20.00;19.00;;;;;12.51;100.00;98434.09;6138023;28;96370;-56
2024/03/16 02:37:11;;;;;;;;;26.00;23.00;;;;;12.58;100.00;98468.00;6153277;28;96309;-56
2024/03/16 02:40:14;;;;;;;;;21.60;19.00;;;;;12.42;100.00;98459.88;6154263;28;96810;-55
2024/03/16 02:43:18;;;;;;;;;26.40;23.80;;;;;12.28;100.00;98469.34;6154168;28;96400;-55
2024/03/16 02:46:21;;;;;;;;;27.00;24.80;;;;;12.11;100.00;98455.81;6154515;28;96424;-55
2024/03/16 02:49:25;;;;;;;;;29.00;25.00;;;;;12.08;100.00;98467.91;6154257;28;96805;-55
2024/03/16 02:52:28;;;;;;;;;30.80;26.40;;;;;11.99;100.00;98463.97;6152384;28;96547;-56
2024/03/16 02:55:32;;;;;;;;;27.80;25.80;;;;;11.99;100.00;98468.53;6159019;28;96975;-55
2024/03/16 02:58:35;;;;;;;;;30.50;27.00;;;;;11.75;100.00;98434.56;6158307;28;96695;-56
2024/03/16 03:01:38;;;;;;;;;29.50;27.50;;;;;11.90;100.00;98467.28;6156772;28;96187;-55
2024/03/16 03:04:42;;;;;;;;;34.00;27.40;;;;;11.85;100.00;98467.19;6149210;28;96699;-56
2024/03/16 03:07:45;;;;;;;;;32.80;29.80;;;;;11.83;100.00;98469.28;6133800;28;96316;-55
2024/03/16 03:10:48;;;;;;;;;30.60;29.20;;;;;11.72;100.00;98454.75;6134329;28;96749;-55
2024/03/16 03:13:51;;;;;;;;;30.00;26.60;;;;;11.83;100.00;98472.00;6133747;28;96407;-55
2024/03/16 03:16:54;;;;;;;;;30.00;27.60;;;;;11.83;100.00;98466.59;6117935;28;96880;-55
2024/03/16 03:19:58;;;;;;;;;29.50;28.50;;;;;11.86;100.00;98475.06;6117379;28;96438;-55
2024/03/16 03:23:05;;;;;;;;;35.00;30.00;;;;;11.86;100.00;98479.63;6129904;28;96437;-53
2024/03/16 03:26:08;;;;;;;;;37.00;32.00;;;;;11.88;100.00;98477.50;6126241;28;96301;-52
2024/03/16 03:29:11;;;;;;;;;37.60;32.00;;;;;11.86;100.00;98466.97;6145732;28;97096;-53
2024/03/16 03:32:15;;;;;;;;;35.75;30.00;;;;;11.86;100.00;98466.97;6139615;28;96271;-52
2024/03/16 03:35:18;;;;;;;;;35.40;30.00;;;;;11.88;100.00;98470.22;6146360;28;96407;-53
2024/03/16 03:38:21;;;;;;;;;24.00;23.00;;;;;11.92;100.00;98466.00;6145412;28;96301;-52
2024/03/16 03:41:27;;;;;;;;;23.00;19.50;;;;;11.99;100.00;98472.06;6130122;28;96922;-53
2024/03/16 03:44:36;;;;;;;;;19.40;18.40;;;;;12.10;100.00;98467.69;6147881;28;96694;-52
2024/03/16 03:48:00;;;;;;;;;19.60;17.00;;;;;12.19;100.00;98455.41;6149035;28;96747;-52
2024/03/16 03:51:05;;;;;;;;;18.00;16.00;;;;;12.32;100.00;98467.81;6153340;28;96565;-52
2024/03/16 03:54:08;;;;;;;;;18.00;16.00;;;;;12.44;100.00;98465.88;6146818;28;96285;-52
2024/03/16 03:57:11;;;;;;;;;13.00;13.00;;;;;12.55;100.00;98465.81;6147090;28;96517;-53
2024/03/16 04:00:15;;;;;;;;;13.60;11.80;;;;;12.70;100.00;98470.66;6147627;28;96400;-53
2024/03/16 04:03:18;;;;;;;;;16.00;14.00;;;;;12.86;100.00;98466.28;6146847;28;96379;-53
2024/03/16 04:06:21;;;;;;;;;12.00;12.00;;;;;12.99;100.00;98466.78;6140500;28;96656;-53
2024/03/16 04:09:25;;;;;;;;;14.50;13.50;;;;;13.10;100.00;98459.63;6144995;28;96277;-53
2024/03/16 04:12:28;;;;;;;;;14.80;13.20;;;;;13.21;100.00;98469.56;6145047;28;97504;-53
2024/03/16 04:15:31;;;;;;;;;16.60;14.60;;;;;13.32;100.00;98473.25;6143388;28;96461;-53
2024/03/16 04:18:35;;;;;;;;;14.00;12.25;;;;;13.39;100.00;98472.00;6140913;28;96389;-54
2024/03/16 04:21:38;;;;;;;;;15.00;14.00;;;;;13.45;100.00;98475.59;6142635;28;96401;-53
2024/03/16 04:24:41;;;;;;;;;15.60;14.00;;;;;13.51;100.00;98473.78;6141456;28;96375;-54
2024/03/16 04:27:44;;;;;;;;;14.60;13.60;;;;;13.45;100.00;98467.47;6138738;28;97133;-53
2024/03/16 04:30:48;;;;;;;;;16.00;14.00;;;;;13.61;100.00;98472.03;6144123;28;96298;-53
2024/03/16 04:33:51;;;;;;;;;12.80;11.80;;;;;13.67;100.00;98478.34;6152124;28;96342;-56
2024/03/16 04:36:54;;;;;;;;;15.00;13.00;;;;;13.71;100.00;98468.63;6156504;28;96530;-56
2024/03/16 04:39:58;;;;;;;;;13.00;12.20;;;;;13.77;100.00;98465.75;6156591;28;96538;-55
2024/03/16 04:43:01;;;;;;;;;12.00;11.67;;;;;13.81;100.00;98471.47;6156279;28;96322;-56
2024/03/16 04:46:04;;;;;;;;;13.00;11.00;;;;;13.89;100.00;98482.66;6154741;28;96303;-55
2024/03/16 04:49:08;;;;;;;;;12.40;11.40;;;;;13.97;100.00;98477.88;6155755;28;96287;-55
2024/03/16 04:52:13;;;;;;;;;14.00;13.00;;;;;14.03;100.00;98484.97;6155553;28;96636;-55
2024/03/16 04:55:17;;;;;;;;;14.00;13.40;;;;;14.06;100.00;98485.31;6154948;28;96451;-56
2024/03/16 04:58:20;;;;;;;;;16.50;13.50;;;;;14.10;100.00;98480.19;6155976;28;96512;-55
2024/03/16 05:01:23;;;;;;;;;19.50;17.00;;;;;14.12;100.00;98476.16;6156469;28;96263;-55
2024/03/16 05:04:26;;;;;;;;;17.20;15.00;;;;;14.13;100.00;98485.09;6146983;28;96303;-56
2024/03/16 05:07:30;;;;;;;;;18.80;17.00;;;;;14.11;100.00;98492.69;6132365;28;96344;-56
2024/03/16 05:10:34;;;;;;;;;17.00;15.00;;;;;14.12;100.00;98489.69;6132532;28;96362;-56
2024/03/16 05:13:37;;;;;;;;;19.67;18.67;;;;;14.11;100.00;98495.41;6131526;28;96321;-55
2024/03/16 05:16:41;;;;;;;;;19.20;16.20;;;;;14.09;100.00;98501.06;6131017;28;96351;-56
2024/03/16 05:19:44;;;;;;;;;25.00;21.40;;;;;14.05;100.00;98491.81;6131675;28;96260;-56
2024/03/16 05:22:48;;;;;;;;;21.50;20.00;;;;;14.03;100.00;98498.53;6131800;28;96333;-56
2024/03/16 05:25:51;;;;;;;;;22.00;21.00;;;;;13.98;100.00;98487.63;6131627;28;96526;-55
2024/03/16 05:28:54;;;;;;;;;20.60;19.00;;;;;13.99;100.00;98495.53;6130528;28;96543;-55
2024/03/16 05:31:58;;;;;;;;;20.40;18.40;;;;;14.00;100.00;98494.47;6130891;28;97813;-56
2024/03/16 05:35:03;;;;;;;;;22.00;18.00;;;;;14.00;100.00;98490.91;6131350;28;96497;-56
2024/03/16 05:38:06;;;;;;;;;19.50;18.00;;;;;13.99;100.00;98498.22;6131527;28;96235;-55
2024/03/16 05:41:09;;;;;;;;;22.40;20.00;;;;;14.01;100.00;98506.94;6130730;28;96360;-55
2024/03/16 05:44:12;;;;;;;;;22.00;22.00;;;;;14.02;100.00;98505.06;6130045;28;97720;-56
2024/03/16 05:47:20;;;;;;;;;22.00;18.80;;;;;13.97;100.00;98494.97;6130332;28;96372;-56
2024/03/16 05:50:25;;;;;;;;;23.60;20.00;;;;;14.03;100.00;98506.66;6131782;28;96323;-56
2024/03/16 05:53:28;;;;;;;;;22.00;19.75;;;;;14.05;100.00;98502.66;6150878;28;96850;-56
2024/03/16 05:56:32;;;;;;;;;23.40;21.00;;;;;14.12;100.00;98505.97;6140953;28;96433;-55
2024/03/16 05:59:35;;;;;;;;;22.00;20.00;;;;;14.18;100.00;98502.25;6141599;28;96347;-55
2024/03/16 06:02:38;;;;;;;;;21.00;20.00;;;;;14.25;100.00;98499.34;6141498;28;96291;-56
2024/03/16 06:05:43;;;;;;;;;19.80;19.20;;;;;14.32;100.00;98494.53;6120542;28;98437;-56
2024/03/16 06:08:46;;;;;;;;;21.50;21.00;;;;;14.42;100.00;98501.97;6155348;28;96317;-55
2024/03/16 06:11:50;;;;;;;;;24.40;20.40;;;;;14.51;100.00;98508.59;6134631;28;96158;-55
2024/03/16 06:14:53;;;;;;;;;25.50;22.50;;;;;14.61;100.00;98519.56;6130383;28;96545;-55
2024/03/16 06:17:56;;;;;;;;;23.40;20.40;;;;;14.73;100.00;98506.63;6150233;28;96304;-55
2024/03/16 06:20:59;;;;;;;;;19.00;19.00;;;;;14.84;100.00;98510.25;6130897;28;96596;-55
2024/03/16 06:24:04;;;;;;;;;21.60;20.00;;;;;14.97;100.00;98507.13;6122033;28;96320;-56
2024/03/16 06:27:09;;;;;;;;;23.40;20.00;;;;;15.05;100.00;98515.59;6151913;28;96288;-56
2024/03/16 06:30:13;;;;;;;;;18.00;16.00;;;;;15.17;100.00;98518.97;6135301;28;97621;-56
2024/03/16 06:33:27;;;;;;;;;16.50;16.00;;;;;15.31;100.00;98516.59;6133449;28;96809;-56
2024/03/16 06:36:30;;;;;;;;;20.40;18.40;;;;;15.44;100.00;98515.34;6157641;28;96233;-56
2024/03/16 06:39:33;;;;;;;;;20.00;19.00;;;;;15.58;100.00;98511.94;6154702;28;96408;-55
2024/03/16 06:42:36;;;;;;;;;19.00;17.00;;;;;15.77;100.00;98522.34;6141964;28;96277;-56
2024/03/16 06:45:39;;;;;;;;;16.40;15.00;;;;;15.85;100.00;98516.41;6151472;28;98722;-56
2024/03/16 06:48:43;;;;;;;;;19.20;17.20;;;;;16.12;100.00;98533.41;6153013;28;96284;-56
2024/03/16 06:51:46;;;;;;;;;17.80;16.80;;;;;16.29;100.00;98533.16;6139963;28;97840;-56
2024/03/16 06:54:49;;;;;;;;;16.60;14.60;;;;;16.40;100.00;98534.84;6138472;28;98554;-56
2024/03/16 06:57:52;;;;;;;;;15.40;14.00;;;;;16.53;100.00;98538.94;6154182;28;96655;-55
2024/03/16 07:00:55;;;;;;;;;14.40;13.40;;;;;16.58;100.00;98545.25;6144070;28;96418;-55
2024/03/16 07:03:59;;;;;;;;;17.00;15.75;;;;;16.63;100.00;98544.44;6151451;28;96544;-55
2024/03/16 07:07:02;;;;;;;;;16.20;15.00;;;;;16.65;100.00;98545.84;6152003;28;96382;-56
2024/03/16 07:10:06;;;;;;;;;16.40;15.00;;;;;16.57;100.00;98529.16;6134915;28;96774;-55
2024/03/16 07:13:10;;;;;;;;;16.00;14.60;;;;;16.67;100.00;98549.09;6151387;28;97267;-55
2024/03/16 07:16:14;;;;;;;;;16.40;15.00;;;;;16.72;100.00;98561.88;6144882;28;96400;-55
2024/03/16 07:19:23;;;;;;;;;19.40;17.60;;;;;16.68;100.00;98558.06;6147712;28;96392;-55
2024/03/16 07:22:27;;;;;;;;;16.60;16.00;;;;;16.70;100.00;98558.63;6139594;28;96395;-55
2024/03/16 07:25:30;;;;;;;;;15.40;15.40;;;;;16.74;100.00;98559.72;6151958;28;96834;-55
2024/03/16 07:28:33;;;;;;;;;16.25;14.00;;;;;16.79;100.00;98567.91;6151236;28;96308;-56
2024/03/16 07:31:39;;;;;;;;;17.20;15.60;;;;;16.82;100.00;98570.91;6152518;28;96353;-55
2024/03/16 07:34:42;;;;;;;;;14.50;14.50;;;;;16.84;100.00;98579.63;6148699;28;96450;-56
2024/03/16 07:37:45;;;;;;;;;14.60;14.00;;;;;16.89;100.00;98570.66;6151696;28;96423;-56
2024/03/16 07:40:48;;;;;;;;;16.00;14.00;;;;;16.95;100.00;98577.75;6153361;28;96334;-55
2024/03/16 07:43:52;;;;;;;;;21.00;18.20;;;;;16.98;100.00;98587.25;6155421;28;96291;-56
2024/03/16 07:46:55;;;;;;;;;17.00;16.50;;;;;17.05;100.00;98576.94;6155193;28;96295;-56
2024/03/16 07:49:59;;;;;;;;;22.50;20.50;;;;;17.09;100.00;98578.03;6154481;28;98235;-56
2024/03/16 07:53:03;;;;;;;;;19.00;18.00;;;;;17.22;100.00;98578.28;6150913;28;98520;-56
2024/03/16 07:56:09;;;;;;;;;17.40;16.40;;;;;17.28;100.00;98579.94;6151721;28;98823;-56
2024/03/16 07:59:12;;;;;;;;;20.00;16.60;;;;;17.36;100.00;98586.72;6156106;28;97269;-56
2024/03/16 08:02:15;;;;;;;;;18.67;16.67;;;;;17.45;100.00;98581.53;6145324;28;98491;-56
2024/03/16 08:05:22;;;;;;;;;15.00;14.00;;;;;17.53;100.00;98600.09;6135470;28;96602;-55
2024/03/16 08:08:26;;;;;;;;;27.20;23.60;;;;;17.63;100.00;98590.03;6131856;28;96549;-55
2024/03/16 08:11:30;;;;;;;;;23.50;20.75;;;;;17.64;100.00;98582.69;6131457;28;96148;-55
2024/03/16 08:14:34;;;;;;;;;23.20;20.00;;;;;17.83;100.00;98594.66;6131330;28;96498;-55
2024/03/16 08:17:38;;;;;;;;;23.60;21.60;;;;;17.91;100.00;98596.78;6131448;28;96430;-55
2024/03/16 08:20:41;;;;;;;;;21.00;20.00;;;;;18.00;100.00;98603.31;6131085;28;96425;-55
2024/03/16 08:23:44;;;;;;;;;23.00;22.50;;;;;18.07;100.00;98595.69;6124281;28;96820;-55
2024/03/16 08:26:47;;;;;;;;;23.40;22.40;;;;;18.29;100.00;98598.03;6131223;28;96491;-55
2024/03/16 08:29:51;;;;;;;;;25.40;24.00;;;;;18.45;100.00;98599.63;6125674;28;96463;-55
2024/03/16 08:32:54;;;;;;;;;24.00;21.00;;;;;18.69;100.00;98599.81;6130370;28;96493;-55
2024/03/16 08:35:58;;;;;;;;;24.00;22.00;;;;;18.94;100.00;98598.84;6097078;28;98562;-55
2024/03/16 08:39:03;;;;;;;;;25.00;24.00;;;;;19.22;100.00;98597.28;6130459;28;96755;-55
2024/03/16 08:42:07;;;;;;;;;24.40;22.40;;;;;19.48;100.00;98598.75;6132071;28;96942;-55
2024/03/16 08:45:10;;;;;;;;;29.40;26.40;;;;;19.68;100.00;98604.06;6130089;28;96442;-55
2024/03/16 08:48:14;;;;;;;;;28.00;24.00;;;;;19.69;100.00;98602.94;6131098;28;97138;-55
2024/03/16 08:51:17;;;;;;;;;29.00;25.60;;;;;19.62;100.00;98599.72;6128522;28;96410;-55
2024/03/16 08:54:20;;;;;;;;;20.60;19.00;;;;;19.44;100.00;98600.44;6128970;28;96372;-55
2024/03/16 08:57:23;;;;;;;;;19.60;18.00;;;;;19.22;100.00;98594.53;6130425;28;96667;-55
2024/03/16 09:00:27;;;;;;;;;22.00;20.75;;;;;19.16;100.00;98593.75;6106460;28;97577;-54
2024/03/16 09:03:31;;;;;;;;;21.80;21.60;;;;;19.13;100.00;98599.00;6129905;28;97730;-55
2024/03/16 09:06:38;;;;;;;;;25.25;23.00;;;;;19.02;100.00;98577.19;6126321;28;96565;-55
2024/03/16 09:09:41;;;;;;;;;21.00;18.40;;;;;19.22;100.00;98592.63;6128710;28;96312;-55
2024/03/16 09:12:46;;;;;;;;;16.60;16.00;;;;;19.23;100.00;98607.13;6129555;28;96861;-55
2024/03/16 09:15:50;;;;;;;;;14.00;12.40;;;;;19.13;100.00;98594.34;6128461;28;96773;-55
2024/03/16 09:18:53;;;;;;;;;11.75;10.25;;;;;18.91;100.00;98599.44;6127964;28;96868;-55
2024/03/16 09:21:56;;;;;;;;;11.00;10.00;;;;;18.75;100.00;98589.69;6127267;28;96720;-55
2024/03/16 09:24:59;;;;;;;;;8.60;8.00;;;;;18.76;100.00;98594.88;6119990;28;96362;-55
2024/03/16 09:28:03;;;;;;;;;9.00;8.00;;;;;18.77;100.00;98598.38;6131067;28;96403;-55
2024/03/16 09:31:10;;;;;;;;;8.00;8.00;;;;;18.88;100.00;98600.78;6131000;28;96445;-55
2024/03/16 09:34:14;;;;;;;;;10.00;9.60;;;;;19.45;100.00;98604.78;6131894;28;96347;-55
2024/03/16 09:37:17;;;;;;;;;8.80;8.40;;;;;19.69;100.00;98611.16;6131158;28;96465;-55
2024/03/16 09:40:20;;;;;;;;;11.00;9.00;;;;;20.16;100.00;98604.91;6128214;28;96508;-55
2024/03/16 09:43:24;;;;;;;;;10.40;9.40;;;;;20.37;100.00;98602.81;6123995;28;97980;-55
2024/03/16 09:46:31;;;;;;;;;9.00;8.00;;;;;20.62;100.00;98601.69;6140263;28;96810;-55
2024/03/16 09:49:35;;;;;;;;;8.60;7.60;;;;;20.55;100.00;98598.47;6130259;28;97529;-55
2024/03/16 09:52:40;;;;;;;;;9.00;9.00;;;;;20.33;100.00;98597.06;6112043;28;96797;-55
2024/03/16 09:55:42;;;;;;;;;10.60;9.00;;;;;19.96;100.00;98602.41;6117347;28;96781;-55
2024/03/16 09:58:44;;;;;;;;;11.40;10.00;;;;;20.14;100.00;98600.81;6119668;28;96523;-55
2024/03/16 10:01:47;;;;;;;;;9.20;8.00;;;;;20.34;100.00;98603.38;6106878;28;97555;-55
2024/03/16 10:04:49;;;;;;;;;11.00;10.00;;;;;20.43;100.00;98598.88;6132591;28;97683;-55
2024/03/16 10:07:52;;;;;;;;;9.25;9.25;;;;;20.59;100.00;98594.84;6131770;28;96773;-55
2024/03/16 10:11:09;;;;;;;;;9.80;8.80;;;;;20.92;100.00;98598.50;6110007;28;97370;-55
2024/03/16 10:14:13;;;;;;;;;9.20;9.00;;;;;21.32;100.00;98604.50;6125049;28;96671;-55
2024/03/16 10:17:16;;;;;;;;;12.40;11.00;;;;;22.38;100.00;98610.88;6113099;28;96598;-55
2024/03/16 10:20:18;;;;;;;;;11.00;9.60;;;;;23.58;100.00;98600.25;6126784;28;96542;-56
2024/03/16 10:23:21;;;;;;;;;9.00;8.00;;;;;24.86;100.00;98597.25;6132893;28;97344;-55
2024/03/16 10:26:23;;;;;;;;;10.00;9.00;;;;;26.19;100.00;98600.09;6112347;28;97247;-55
2024/03/16 10:29:25;;;;;;;;;9.00;8.75;;;;;27.63;100.00;98595.13;6127888;28;96514;-55
2024/03/16 10:32:27;;;;;;;;;9.00;9.00;;;;;29.21;91.79;98591.34;6128583;28;98082;-55
2024/03/16 10:35:34;;;;;;;;;11.00;10.00;;;;;30.61;84.00;98591.19;6126724;28;96666;-55
2024/03/16 10:38:36;;;;;;;;;10.00;8.00;;;;;31.80;76.98;98592.25;6113458;28;96705;-55
2024/03/16 10:41:38;;;;;;;;;11.00;9.75;;;;;31.88;73.29;98560.53;6109108;28;96423;-56
2024/03/16 10:44:46;;;;;;;;;10.67;8.67;;;;;32.02;73.04;98579.50;6127047;28;96843;-56
2024/03/16 10:47:50;;;;;;;;;10.50;9.50;;;;;31.79;72.91;98585.88;6112922;28;96533;-56
2024/03/16 10:50:53;;;;;;;;;10.00;10.00;;;;;31.75;72.25;98590.59;6128583;28;96472;-56
2024/03/16 10:53:55;;;;;;;;;10.60;9.40;;;;;31.20;74.36;98579.84;6111328;28;97446;-56
2024/03/16 10:56:58;;;;;;;;;10.40;10.00;;;;;30.28;76.34;98585.97;6133907;28;96371;-56
2024/03/16 11:00:00;;;;;;;;;10.20;9.00;;;;;29.49;79.98;98568.34;6108456;28;97117;-55
2024/03/16 11:03:07;;;;;;;;;10.25;9.00;;;;;29.20;83.44;98566.69;6110210;28;96378;-55
2024/03/16 11:06:10;;;;;;;;;10.00;10.00;;;;;28.45;85.75;98571.88;6125082;28;97138;-56
2024/03/16 11:09:19;;;;;;;;;9.00;9.00;;;;;28.42;86.05;98550.38;6125095;28;96544;-55
2024/03/16 11:12:31;;;;;;;;;9.60;9.00;;;;;28.70;87.29;98564.34;6118436;28;96918;-55
2024/03/16 11:15:38;;;;;;;;;10.00;10.00;;;;;28.75;86.04;98567.72;6127496;28;96333;-55
2024/03/16 11:18:41;;;;;;;;;10.00;9.00;;;;;28.59;87.04;98569.53;6132942;28;97071;-55
2024/03/16 11:21:45;;;;;;;;;9.00;8.00;;;;;28.21;89.02;98549.69;6100351;28;96724;-55
2024/03/16 11:24:47;;;;;;;;;10.40;10.00;;;;;27.92;88.06;98561.75;6131911;28;96378;-55
2024/03/16 11:27:50;;;;;;;;;9.00;8.00;;;;;27.23;89.97;98536.69;6115659;28;96489;-55
2024/03/16 11:30:51;;;;;;;;;10.00;8.00;;;;;26.82;92.14;98554.09;6132037;28;96912;-55
2024/03/16 11:33:53;;;;;;;;;10.33;10.00;;;;;26.41;93.14;98560.34;6131835;28;96492;-56
2024/03/16 11:36:56;;;;;;;;;8.00;8.00;;;;;26.14;95.26;98551.34;6125773;28;96402;-57
2024/03/16 11:39:57;;;;;;;;;9.00;9.00;;;;;25.56;96.80;98549.25;6142656;28;96623;-56
2024/03/16 11:42:59;;;;;;;;;9.25;9.00;;;;;24.97;97.87;98509.53;6126930;28;96919;-57
2024/03/16 11:46:00;;;;;;;;;8.40;8.00;;;;;25.12;100.00;98547.63;6143428;28;96099;-56
2024/03/16 11:49:02;;;;;;;;;9.80;8.80;;;;;25.11;100.00;98543.28;6138654;28;96360;-56
2024/03/16 11:52:06;;;;;;;;;9.60;8.40;;;;;25.11;100.00;98543.28;6145167;28;96428;-56
2024/03/16 11:55:07;;;;;;;;;8.20;8.00;;;;;25.46;99.25;98530.25;6119876;28;96362;-56
2024/03/16 11:58:09;;;;;;;;;10.20;8.40;;;;;25.85;96.37;98534.75;6118834;28;96356;-56
2024/03/16 12:01:12;;;;;;;;;6.00;5.00;;;;;25.97;95.15;98540.38;6149247;28;96517;-56
2024/03/16 12:04:15;;;;;;;;;8.00;7.00;;;;;26.36;94.77;98536.47;6136892;28;96273;-56
2024/03/16 12:07:16;;;;;;;;;7.00;7.00;;;;;26.01;93.15;98519.22;6145104;28;96354;-56
2024/03/16 12:10:19;;;;;;;;;7.40;6.40;;;;;25.72;93.14;98536.53;6130202;28;96857;-56
2024/03/16 12:13:22;;;;;;;;;8.00;8.00;;;;;25.81;94.32;98542.03;6146195;28;96547;-56
2024/03/16 12:16:24;;;;;;;;;8.00;7.25;;;;;25.95;93.49;98528.81;6131691;28;96354;-56
2024/03/16 12:19:26;;;;;;;;;10.40;9.00;;;;;26.16;93.74;98528.91;6145259;28;96583;-56
2024/03/16 12:22:28;;;;;;;;;9.40;9.00;;;;;25.90;91.88;98534.56;6145708;28;96440;-56
2024/03/16 12:25:31;;;;;;;;;9.00;8.00;;;;;25.32;94.83;98519.38;6119417;28;96363;-56
2024/03/16 12:28:33;;;;;;;;;9.00;9.00;;;;;24.90;98.27;98518.28;6143483;28;97587;-56
2024/03/16 12:31:37;;;;;;;;;9.00;9.00;;;;;24.43;100.00;98531.03;6134124;28;96324;-56
2024/03/16 12:34:39;;;;;;;;;10.00;9.00;;;;;24.09;100.00;98500.59;6134232;28;96724;-56
2024/03/16 12:37:42;;;;;;;;;11.00;9.00;;;;;24.22;100.00;98499.69;6148026;28;96453;-56
2024/03/16 12:40:44;;;;;;;;;9.00;8.50;;;;;24.33;100.00;98514.78;6139463;28;96331;-56
2024/03/16 12:43:46;;;;;;;;;10.80;9.00;;;;;24.38;100.00;98519.34;6152168;28;96799;-55
2024/03/16 12:46:47;;;;;;;;;9.00;8.00;;;;;24.41;100.00;98515.94;6120504;28;96462;-55
2024/03/16 12:49:49;;;;;;;;;8.00;8.00;;;;;24.48;100.00;98516.28;6141076;28;96529;-55
2024/03/16 12:52:51;;;;;;;;;7.00;7.00;;;;;24.34;100.00;98502.63;6120681;28;96891;-55
2024/03/16 12:55:53;;;;;;;;;6.60;6.60;;;;;24.36;100.00;98514.16;6100115;28;99026;-55
2024/03/16 12:58:55;;;;;;;;;7.00;7.00;;;;;24.65;100.00;98505.28;6134660;28;96686;-56
2024/03/16 13:01:57;;;;;;;;;22.40;20.40;;;;;24.76;100.00;98500.25;6130681;28;96723;-56
2024/03/16 13:04:59;;;;;;;;;18.00;16.50;;;;;24.94;100.00;98497.19;6112977;28;96509;-56
2024/03/16 13:08:01;;;;;;;;;8.40;8.00;;;;;24.89;99.88;98502.88;6131127;28;96479;-56
2024/03/16 13:11:03;;;;;;;;;8.00;7.75;;;;;24.94;100.00;98497.19;6138725;28;97608;-55
2024/03/16 13:14:04;;;;;;;;;8.60;8.00;;;;;24.96;98.63;98497.69;6129842;28;96558;-56
2024/03/16 13:17:07;;;;;;;;;7.00;7.00;;;;;25.00;97.99;98492.34;6110958;28;96971;-56
2024/03/16 13:20:16;;;;;;;;;9.40;8.00;;;;;24.97;98.97;98481.97;6107858;28;96536;-56
2024/03/16 13:23:18;;;;;;;;;9.00;8.00;;;;;24.90;99.62;98492.66;6131377;28;96657;-55
2024/03/16 13:26:19;;;;;;;;;8.00;6.40;;;;;24.63;99.67;98482.72;6113832;28;96498;-56
2024/03/16 13:29:21;;;;;;;;;8.40;7.00;;;;;24.36;100.00;98494.03;6129718;28;97354;-55
2024/03/16 13:32:23;;;;;;;;;6.50;6.00;;;;;24.13;100.00;98485.06;6108493;28;96569;-55
2024/03/16 13:35:24;;;;;;;;;7.00;7.00;;;;;24.24;100.00;98477.34;6130796;28;96380;-55
2024/03/16 13:38:27;;;;;;;;;8.00;7.60;;;;;24.29;100.00;98482.69;6111811;28;96345;-55
2024/03/16 13:41:29;;;;;;;;;6.00;6.00;;;;;24.22;100.00;98483.16;6130109;28;96509;-55
2024/03/16 13:44:34;;;;;;;;;7.00;6.00;;;;;24.27;100.00;98468.41;6131636;28;96311;-55
2024/03/16 13:47:36;;;;;;;;;7.00;6.00;;;;;24.10;100.00;98469.97;6111628;28;96594;-55
2024/03/16 13:50:39;;;;;;;;;8.00;7.00;;;;;24.05;100.00;98469.28;6110213;28;96233;-55
2024/03/16 13:53:41;;;;;;;;;7.00;6.00;;;;;23.91;100.00;98465.84;6117966;28;97322;-55
2024/03/16 13:56:43;;;;;;;;;9.00;7.00;;;;;23.85;100.00;98461.66;6136213;28;96373;-57
2024/03/16 13:59:45;;;;;;;;;8.50;7.50;;;;;23.84;100.00;98451.75;6131707;28;96418;-56